Time,TemperatureF,DewpointF,PressureIn,WindDirection,WindDirectionDegrees,WindSpeedMPH,WindSpeedGustMPH,Humidity,HourlyPrecipIn,Conditions,Clouds,dailyrainin,SoftwareType,DateUTC
2013-03-01 00:00:00,37.9,15.7,31.81,NE,34,4.0,5.0,40,0.00,NA,NA,-99.99,wxupload 3.4,2013-03-01 05:00:00,
2013-03-01 00:04:00,37.9,15.7,31.81,WSW,254,3.0,5.0,40,0.00,NA,NA,-99.99,wxupload 3.4,2013-03-01 05:04:00,
2013-03-01 00:06:00,37.9,15.7,31.81,NNW,330,0.0,0.0,40,0.00,NA,NA,-99.99,wxupload 3.4,2013-03-01 05:06:00,
2013-03-01 00:12:00,37.9,15.1,31.81,WNW,285,3.0,5.0,39,0.00,NA,NA,-99.99,wxupload 3.4,2013-03-01 05:12:00,
2013-03-01 00:14:00,37.9,15.7,31.81,NE,46,4.0,6.0,40,0.00,NA,NA,-99.99,wxupload 3.4,2013-03-01 05:14:00,
2013-03-01 00:18:00,37.8,15.0,31.81,NNE,18,3.0,4.0,39,0.00,NA,NA,-99.99,wxupload 3.4,2013-03-01 05:18:00,
2013-03-01 00:24:00,37.8,15.0,31.81,WSW,248,4.0,8.0,39,0.00,NA,NA,-99.99,wxupload 3.4,2013-03-01 05:24:00,
2013-03-01 00:30:00,37.6,14.8,31.81,NNW,329,0.0,4.0,39,0.00,NA,NA,-99.99,wxupload 3.4,2013-03-01 05:30:00,
2013-03-01 00:36:00,37.6,14.8,31.81,NW,321,0.0,0.0,39,0.00,NA,NA,-99.99,wxupload 3.4,2013-03-01 05:36:00,
2013-03-01 00:42:00,37.6,14.8,31.81,NW,325,0.0,0.0,39,0.00,NA,NA,-99.99,wxupload 3.4,2013-03-01 05:42:00,
2013-03-01 00:48:00,37.4,15.2,31.81,North,353,3.0,6.0,40,0.00,NA,NA,-99.99,wxupload 3.4,2013-03-01 05:48:00,
2013-03-01 00:54:00,37.4,14.6,31.81,NW,304,4.0,4.0,39,0.00,NA,NA,-99.99,wxupload 3.4,2013-03-01 05:54:00,
2013-03-01 01:00:00,37.4,14.6,31.81,NE,38,0.0,0.0,39,0.00,NA,NA,-99.99,wxupload 3.4,2013-03-01 06:00:00,
2013-03-01 01:06:00,37.4,14.6,31.81,NW,304,0.0,0.0,39,0.00,NA,NA,-99.99,wxupload 3.4,2013-03-01 06:06:00,
2013-03-01 01:12:00,37.2,15.1,31.81,NE,50,0.0,5.0,40,0.00,NA,NA,-99.99,wxupload 3.4,2013-03-01 06:12:00,
2013-03-01 01:18:00,37.2,15.1,31.81,North,353,0.0,0.0,40,0.00,NA,NA,-99.99,wxupload 3.4,2013-03-01 06:18:00,
2013-03-01 01:24:00,37.2,15.1,31.81,North,9,0.0,0.0,40,0.00,NA,NA,-99.99,wxupload 3.4,2013-03-01 06:24:00,
2013-03-01 01:30:00,37.0,14.9,31.81,WNW,297,0.0,0.0,40,0.00,NA,NA,-99.99,wxupload 3.4,2013-03-01 06:30:00,
2013-03-01 01:36:00,37.0,15.5,31.84,NW,306,0.0,0.0,41,0.00,NA,NA,-99.99,wxupload 3.4,2013-03-01 06:36:00,
2013-03-01 01:42:00,37.0,15.5,31.84,NNW,342,4.0,6.0,41,0.00,NA,NA,-99.99,wxupload 3.4,2013-03-01 06:42:00,
2013-03-01 01:48:00,37.0,14.9,31.84,NW,314,0.0,0.0,40,0.00,NA,NA,-99.99,wxupload 3.4,2013-03-01 06:48:00,
2013-03-01 01:54:00,37.0,15.5,31.84,North,353,0.0,0.0,41,0.00,NA,NA,-99.99,wxupload 3.4,2013-03-01 06:54:00,
2013-03-01 02:00:00,37.0,14.9,31.84,NW,319,0.0,3.0,40,0.00,NA,NA,-99.99,wxupload 3.4,2013-03-01 07:00:00,
2013-03-01 02:06:00,36.9,14.7,31.81,NW,324,4.0,5.0,40,0.00,NA,NA,-99.99,wxupload 3.4,2013-03-01 07:06:00,
2013-03-01 02:12:00,37.0,14.9,31.81,ENE,66,0.0,0.0,40,0.00,NA,NA,-99.99,wxupload 3.4,2013-03-01 07:12:00,
2013-03-01 02:18:00,37.0,14.9,31.84,NW,316,0.0,0.0,40,0.00,NA,NA,-99.99,wxupload 3.4,2013-03-01 07:18:00,
2013-03-01 02:24:00,36.9,14.7,31.84,NE,56,0.0,0.0,40,0.00,NA,NA,-99.99,wxupload 3.4,2013-03-01 07:24:00,
2013-03-01 02:30:00,36.9,14.7,31.84,NW,324,0.0,4.0,40,0.00,NA,NA,-99.99,wxupload 3.4,2013-03-01 07:30:00,
2013-03-01 02:36:00,36.9,14.7,31.81,NW,313,0.0,4.0,40,0.00,NA,NA,-99.99,wxupload 3.4,2013-03-01 07:36:00,
2013-03-01 02:42:00,36.9,14.7,31.81,NNW,330,0.0,0.0,40,0.00,NA,NA,-99.99,wxupload 3.4,2013-03-01 07:42:00,
2013-03-01 02:48:00,36.7,14.6,31.84,NW,320,2.0,3.0,40,0.00,NA,NA,-99.99,wxupload 3.4,2013-03-01 07:48:00,
2013-03-01 02:54:00,36.7,14.6,31.84,NE,38,0.0,0.0,40,0.00,NA,NA,-99.99,wxupload 3.4,2013-03-01 07:54:00,
2013-03-01 03:00:00,36.7,14.6,31.84,NW,326,0.0,0.0,40,0.00,NA,NA,-99.99,wxupload 3.4,2013-03-01 08:00:00,
2013-03-01 03:06:00,36.5,15.0,31.81,NW,326,0.0,0.0,41,0.00,NA,NA,-99.99,wxupload 3.4,2013-03-01 08:06:00,
2013-03-01 03:12:00,36.5,15.0,31.81,North,353,0.0,4.0,41,0.00,NA,NA,-99.99,wxupload 3.4,2013-03-01 08:12:00,
2013-03-01 03:18:00,36.5,15.0,31.81,North,353,0.0,0.0,41,0.00,NA,NA,-99.99,wxupload 3.4,2013-03-01 08:18:00,
2013-03-01 03:24:00,36.5,15.0,31.81,NNW,333,0.0,0.0,41,0.00,NA,NA,-99.99,wxupload 3.4,2013-03-01 08:24:00,
2013-03-01 03:30:00,36.5,15.0,31.81,NNW,327,0.0,0.0,41,0.00,NA,NA,-99.99,wxupload 3.4,2013-03-01 08:30:00,
2013-03-01 03:36:00,36.3,14.8,31.84,WSW,253,0.0,4.0,41,0.00,NA,NA,-99.99,wxupload 3.4,2013-03-01 08:36:00,
2013-03-01 03:42:00,36.3,14.8,31.84,West,267,0.0,5.0,41,0.00,NA,NA,-99.99,wxupload 3.4,2013-03-01 08:42:00,
2013-03-01 03:48:00,36.3,14.8,31.81,NW,319,0.0,0.0,41,0.00,NA,NA,-99.99,wxupload 3.4,2013-03-01 08:48:00,
2013-03-01 03:54:00,36.3,14.8,31.81,NW,313,0.0,3.0,41,0.00,NA,NA,-99.99,wxupload 3.4,2013-03-01 08:54:00,
2013-03-01 04:00:00,36.3,14.8,31.81,NNE,28,0.0,0.0,41,0.00,NA,NA,-99.99,wxupload 3.4,2013-03-01 09:00:00,
2013-03-01 04:06:00,36.3,14.8,31.81,NNW,329,3.0,6.0,41,0.00,NA,NA,-99.99,wxupload 3.4,2013-03-01 09:06:00,
2013-03-01 04:12:00,36.3,14.8,31.81,NNW,338,0.0,0.0,41,0.00,NA,NA,-99.99,wxupload 3.4,2013-03-01 09:12:00,
2013-03-01 04:18:00,36.1,14.6,31.81,NNE,15,0.0,3.0,41,0.00,NA,NA,-99.99,wxupload 3.4,2013-03-01 09:18:00,
2013-03-01 04:24:00,36.3,14.8,31.81,WNW,303,0.0,4.0,41,0.00,NA,NA,-99.99,wxupload 3.4,2013-03-01 09:24:00,
2013-03-01 04:30:00,36.1,15.2,31.81,WNW,301,0.0,3.0,42,0.00,NA,NA,-99.99,wxupload 3.4,2013-03-01 09:30:00,
2013-03-01 04:36:00,36.1,15.2,31.81,NNW,340,3.0,4.0,42,0.00,NA,NA,-99.99,wxupload 3.4,2013-03-01 09:36:00,
2013-03-01 04:42:00,36.1,14.6,31.81,NNW,343,0.0,0.0,41,0.00,NA,NA,-99.99,wxupload 3.4,2013-03-01 09:42:00,
2013-03-01 04:48:00,36.1,15.2,31.81,NW,304,0.0,0.0,42,0.00,NA,NA,-99.99,wxupload 3.4,2013-03-01 09:48:00,
2013-03-01 04:54:00,36.1,15.2,31.81,NW,307,0.0,0.0,42,0.00,NA,NA,-99.99,wxupload 3.4,2013-03-01 09:54:00,
2013-03-01 05:00:00,36.0,15.0,31.81,SSW,209,0.0,0.0,42,0.00,NA,NA,-99.99,wxupload 3.4,2013-03-01 10:00:00,
2013-03-01 05:06:00,36.0,15.0,31.84,NE,48,0.0,0.0,42,0.00,NA,NA,-99.99,wxupload 3.4,2013-03-01 10:06:00,
2013-03-01 05:12:00,36.0,15.0,31.84,NE,52,0.0,5.0,42,0.00,NA,NA,-99.99,wxupload 3.4,2013-03-01 10:12:00,
2013-03-01 05:18:00,36.0,15.0,31.84,NW,308,0.0,0.0,42,0.00,NA,NA,-99.99,wxupload 3.4,2013-03-01 10:18:00,
2013-03-01 05:24:00,35.8,14.9,31.84,WNW,285,0.0,4.0,42,0.00,NA,NA,-99.99,wxupload 3.4,2013-03-01 10:24:00,
2013-03-01 05:30:00,35.8,14.3,31.84,NW,317,0.0,4.0,41,0.00,NA,NA,-99.99,wxupload 3.4,2013-03-01 10:30:00,
2013-03-01 05:36:00,35.6,14.1,31.84,WNW,300,0.0,0.0,41,0.00,NA,NA,-99.99,wxupload 3.4,2013-03-01 10:36:00,
2013-03-01 05:44:00,35.4,14.5,31.84,North,0,0.0,0.0,42,0.00,NA,NA,-99.99,wxupload 3.4,2013-03-01 10:44:00,
2013-03-01 05:50:00,35.2,14.4,31.84,NNE,27,3.0,4.0,42,0.00,NA,NA,-99.99,wxupload 3.4,2013-03-01 10:50:00,
2013-03-01 05:56:00,35.2,14.4,31.84,NE,41,0.0,0.0,42,0.00,NA,NA,-99.99,wxupload 3.4,2013-03-01 10:56:00,
2013-03-01 06:02:00,35.1,14.2,31.84,NW,320,0.0,0.0,42,0.00,NA,NA,-99.99,wxupload 3.4,2013-03-01 11:02:00,
2013-03-01 06:08:00,34.9,14.6,31.84,NNW,334,0.0,0.0,43,0.00,NA,NA,-99.99,wxupload 3.4,2013-03-01 11:08:00,
2013-03-01 06:14:00,34.9,14.0,31.84,North,353,0.0,4.0,42,0.00,NA,NA,-99.99,wxupload 3.4,2013-03-01 11:14:00,
2013-03-01 06:20:00,34.9,14.6,31.84,North,349,0.0,0.0,43,0.00,NA,NA,-99.99,wxupload 3.4,2013-03-01 11:20:00,
2013-03-01 06:26:00,34.7,14.4,31.84,NNE,23,0.0,0.0,43,0.00,NA,NA,-99.99,wxupload 3.4,2013-03-01 11:26:00,
2013-03-01 06:33:00,34.7,14.4,31.84,North,3,0.0,4.0,43,0.00,NA,NA,-99.99,wxupload 3.4,2013-03-01 11:33:00,
2013-03-01 06:38:00,34.9,14.0,31.84,NNW,328,0.0,0.0,42,0.00,NA,NA,-99.99,wxupload 3.4,2013-03-01 11:38:00,
2013-03-01 06:44:00,34.7,13.9,31.84,North,0,3.0,4.0,42,0.00,NA,NA,-99.99,wxupload 3.4,2013-03-01 11:44:00,
2013-03-01 06:50:00,34.9,14.0,31.84,NE,39,4.0,6.0,42,0.00,NA,NA,-99.99,wxupload 3.4,2013-03-01 11:50:00,
2013-03-01 06:56:00,34.7,13.9,31.84,NNW,336,0.0,3.0,42,0.00,NA,NA,-99.99,wxupload 3.4,2013-03-01 11:56:00,
2013-03-01 07:02:00,34.7,13.9,31.84,NNW,336,4.0,6.0,42,0.00,NA,NA,-99.99,wxupload 3.4,2013-03-01 12:02:00,
2013-03-01 07:08:00,34.9,14.0,31.84,NNW,328,3.0,4.0,42,0.00,NA,NA,-99.99,wxupload 3.4,2013-03-01 12:08:00,
2013-03-01 07:14:00,34.9,14.0,31.84,NW,317,0.0,3.0,42,0.00,NA,NA,-99.99,wxupload 3.4,2013-03-01 12:14:00,
2013-03-01 07:20:00,34.9,14.0,31.84,NNE,15,3.0,4.0,42,0.00,NA,NA,-99.99,wxupload 3.4,2013-03-01 12:20:00,
2013-03-01 07:26:00,34.9,14.0,31.84,North,0,0.0,3.0,42,0.00,NA,NA,-99.99,wxupload 3.4,2013-03-01 12:26:00,
2013-03-01 07:32:00,35.1,14.2,31.87,NW,318,0.0,4.0,42,0.00,NA,NA,-99.99,wxupload 3.4,2013-03-01 12:32:00,
2013-03-01 07:38:00,35.1,13.6,31.87,North,353,0.0,2.0,41,0.00,NA,NA,-99.99,wxupload 3.4,2013-03-01 12:38:00,
2013-03-01 07:44:00,35.4,14.0,31.87,NNW,327,0.0,5.0,41,0.00,NA,NA,-99.99,wxupload 3.4,2013-03-01 12:44:00,
2013-03-01 07:50:00,35.6,14.1,31.87,West,281,3.0,5.0,41,0.00,NA,NA,-99.99,wxupload 3.4,2013-03-01 12:50:00,
2013-03-01 07:56:00,36.0,14.5,31.87,North,3,2.0,6.0,41,0.00,NA,NA,-99.99,wxupload 3.4,2013-03-01 12:56:00,
2013-03-01 08:02:00,36.3,14.8,31.87,NW,319,3.0,4.0,41,0.00,NA,NA,-99.99,wxupload 3.4,2013-03-01 13:02:00,
2013-03-01 08:08:00,36.7,14.0,31.87,WSW,252,0.0,5.0,39,0.00,NA,NA,-99.99,wxupload 3.4,2013-03-01 13:08:00,
2013-03-01 08:14:00,36.7,14.0,31.87,NNW,332,3.0,5.0,39,0.00,NA,NA,-99.99,wxupload 3.4,2013-03-01 13:14:00,
2013-03-01 08:20:00,36.9,14.7,31.87,NNW,330,0.0,3.0,40,0.00,NA,NA,-99.99,wxupload 3.4,2013-03-01 13:20:00,
2013-03-01 08:26:00,37.0,14.9,31.87,NW,315,2.0,4.0,40,0.00,NA,NA,-99.99,wxupload 3.4,2013-03-01 13:26:00,
2013-03-01 08:32:00,37.2,14.5,31.90,NNE,24,2.0,3.0,39,0.00,NA,NA,-99.99,wxupload 3.4,2013-03-01 13:32:00,
2013-03-01 08:38:00,37.4,14.0,31.90,WNW,302,3.0,5.0,38,0.00,NA,NA,-99.99,wxupload 3.4,2013-03-01 13:38:00,
2013-03-01 08:44:00,37.6,14.2,31.90,WNW,297,0.0,4.0,38,0.00,NA,NA,-99.99,wxupload 3.4,2013-03-01 13:44:00,
2013-03-01 08:50:00,37.9,14.5,31.90,NW,323,2.0,3.0,38,0.00,NA,NA,-99.99,wxupload 3.4,2013-03-01 13:50:00,
2013-03-01 08:56:00,37.9,13.9,31.90,West,265,0.0,3.0,37,0.00,NA,NA,-99.99,wxupload 3.4,2013-03-01 13:56:00,
2013-03-01 09:02:00,38.1,15.3,31.90,West,273,2.0,4.0,39,0.00,NA,NA,-99.99,wxupload 3.4,2013-03-01 14:02:00,
2013-03-01 09:08:00,38.7,15.8,31.90,NE,38,0.0,4.0,39,0.00,NA,NA,-99.99,wxupload 3.4,2013-03-01 14:08:00,
2013-03-01 09:14:00,38.8,15.9,31.90,NW,319,3.0,4.0,39,0.00,NA,NA,-99.99,wxupload 3.4,2013-03-01 14:14:00,
2013-03-01 09:20:00,39.0,16.1,31.90,NNW,331,0.0,0.0,39,0.00,NA,NA,-99.99,wxupload 3.4,2013-03-01 14:20:00,
2013-03-01 09:26:00,39.4,15.8,31.90,NNW,340,0.0,0.0,38,0.00,NA,NA,-99.99,wxupload 3.4,2013-03-01 14:26:00,
2013-03-01 09:32:00,39.4,15.2,31.90,WNW,291,2.0,4.0,37,0.00,NA,NA,-99.99,wxupload 3.4,2013-03-01 14:32:00,
2013-03-01 09:39:00,39.2,13.8,31.90,NNW,344,0.0,0.0,35,0.00,NA,NA,-99.99,wxupload 3.4,2013-03-01 14:39:00,
2013-03-01 09:44:00,39.4,13.9,31.90,NW,321,0.0,0.0,35,0.00,NA,NA,-99.99,wxupload 3.4,2013-03-01 14:44:00,
2013-03-01 09:51:00,39.9,14.4,31.87,NNE,33,3.0,5.0,35,0.00,NA,NA,-99.99,wxupload 3.4,2013-03-01 14:51:00,
2013-03-01 09:56:00,39.9,14.4,31.87,North,357,0.0,3.0,35,0.00,NA,NA,-99.99,wxupload 3.4,2013-03-01 14:56:00,
2013-03-01 10:03:00,40.3,14.1,31.87,North,9,0.0,0.0,34,0.00,NA,NA,-99.99,wxupload 3.4,2013-03-01 15:03:00,
2013-03-01 10:08:00,40.5,14.2,31.87,West,279,0.0,5.0,34,0.00,NA,NA,-99.99,wxupload 3.4,2013-03-01 15:08:00,
2013-03-01 10:14:00,40.6,14.4,31.87,NNW,346,3.0,4.0,34,0.00,NA,NA,-99.99,wxupload 3.4,2013-03-01 15:14:00,
2013-03-01 10:20:00,41.0,13.3,31.87,NNW,338,0.0,3.0,32,0.00,NA,NA,-99.99,wxupload 3.4,2013-03-01 15:20:00,
2013-03-01 10:26:00,41.2,13.5,31.87,NW,314,0.0,0.0,32,0.00,NA,NA,-99.99,wxupload 3.4,2013-03-01 15:26:00,
2013-03-01 10:32:00,41.5,13.8,31.87,NNW,338,0.0,4.0,32,0.00,NA,NA,-99.99,wxupload 3.4,2013-03-01 15:32:00,
2013-03-01 10:38:00,41.5,12.3,31.87,WNW,289,4.0,4.0,30,0.00,NA,NA,-99.99,wxupload 3.4,2013-03-01 15:38:00,
2013-03-01 10:44:00,41.5,13.1,31.87,North,9,0.0,4.0,31,0.00,NA,NA,-99.99,wxupload 3.4,2013-03-01 15:44:00,
2013-03-01 10:50:00,41.2,12.8,31.87,NNE,15,0.0,0.0,31,0.00,NA,NA,-99.99,wxupload 3.4,2013-03-01 15:50:00,
2013-03-01 10:56:00,41.2,12.0,31.87,NE,42,0.0,3.0,30,0.00,NA,NA,-99.99,wxupload 3.4,2013-03-01 15:56:00,
2013-03-01 11:02:00,41.0,11.8,31.87,NNW,340,0.0,4.0,30,0.00,NA,NA,-99.99,wxupload 3.4,2013-03-01 16:02:00,
2013-03-01 11:08:00,40.5,11.4,31.87,NW,306,2.0,4.0,30,0.00,NA,NA,-99.99,wxupload 3.4,2013-03-01 16:08:00,
2013-03-01 11:14:00,40.3,12.0,31.87,NNW,343,0.0,0.0,31,0.00,NA,NA,-99.99,wxupload 3.4,2013-03-01 16:14:00,
2013-03-01 11:20:00,40.5,12.1,31.90,North,7,0.0,0.0,31,0.00,NA,NA,-99.99,wxupload 3.4,2013-03-01 16:20:00,
2013-03-01 11:26:00,40.5,12.1,31.90,NW,324,2.0,4.0,31,0.00,NA,NA,-99.99,wxupload 3.4,2013-03-01 16:26:00,
2013-03-01 11:32:00,40.1,11.8,31.90,NNW,327,3.0,4.0,31,0.00,NA,NA,-99.99,wxupload 3.4,2013-03-01 16:32:00,
2013-03-01 11:38:00,40.1,11.8,31.90,NNW,330,0.0,3.0,31,0.00,NA,NA,-99.99,wxupload 3.4,2013-03-01 16:38:00,
2013-03-01 11:44:00,40.6,12.3,31.90,North,4,0.0,2.0,31,0.00,NA,NA,-99.99,wxupload 3.4,2013-03-01 16:44:00,
2013-03-01 11:50:00,41.0,11.8,31.90,North,357,0.0,3.0,30,0.00,NA,NA,-99.99,wxupload 3.4,2013-03-01 16:50:00,
2013-03-01 11:56:00,41.0,11.8,31.90,NE,40,0.0,0.0,30,0.00,NA,NA,-99.99,wxupload 3.4,2013-03-01 16:56:00,
2013-03-01 12:02:00,40.8,11.7,31.90,North,8,0.0,0.0,30,0.00,NA,NA,-99.99,wxupload 3.4,2013-03-01 17:02:00,
2013-03-01 12:08:00,40.6,11.5,31.90,North,353,3.0,4.0,30,0.00,NA,NA,-99.99,wxupload 3.4,2013-03-01 17:08:00,
2013-03-01 12:14:00,40.3,11.2,31.90,WNW,286,0.0,0.0,30,0.00,NA,NA,-99.99,wxupload 3.4,2013-03-01 17:14:00,
2013-03-01 12:20:00,40.1,11.1,31.90,WNW,289,0.0,2.0,30,0.00,NA,NA,-99.99,wxupload 3.4,2013-03-01 17:20:00,
2013-03-01 12:26:00,40.3,11.2,31.90,WNW,291,0.0,4.0,30,0.00,NA,NA,-99.99,wxupload 3.4,2013-03-01 17:26:00,
2013-03-01 12:32:00,39.9,10.9,31.90,NE,49,0.0,4.0,30,0.00,NA,NA,-99.99,wxupload 3.4,2013-03-01 17:32:00,
2013-03-01 12:38:00,39.7,10.7,31.90,NNW,344,2.0,4.0,30,0.00,NA,NA,-99.99,wxupload 3.4,2013-03-01 17:38:00,
2013-03-01 12:44:00,39.7,10.7,31.90,NE,39,0.0,4.0,30,0.00,NA,NA,-99.99,wxupload 3.4,2013-03-01 17:44:00,
2013-03-01 12:50:00,39.4,10.4,31.90,NW,317,0.0,0.0,30,0.00,NA,NA,-99.99,wxupload 3.4,2013-03-01 17:50:00,
2013-03-01 12:56:00,39.4,10.4,31.90,NNW,334,0.0,0.0,30,0.00,NA,NA,-99.99,wxupload 3.4,2013-03-01 17:56:00,
2013-03-01 13:02:00,39.6,10.6,31.87,NW,306,0.0,0.0,30,0.00,NA,NA,-99.99,wxupload 3.4,2013-03-01 18:02:00,
2013-03-01 13:08:00,39.9,10.9,31.87,North,5,0.0,3.0,30,0.00,NA,NA,-99.99,wxupload 3.4,2013-03-01 18:08:00,
2013-03-01 13:14:00,40.1,11.1,31.87,NNW,330,2.0,3.0,30,0.00,NA,NA,-99.99,wxupload 3.4,2013-03-01 18:14:00,
2013-03-01 13:21:00,39.7,10.7,31.87,WNW,302,2.0,3.0,30,0.00,NA,NA,-99.99,wxupload 3.4,2013-03-01 18:21:00,
2013-03-01 13:26:00,39.4,9.6,31.87,NW,318,0.0,3.0,29,0.00,NA,NA,-99.99,wxupload 3.4,2013-03-01 18:26:00,
2013-03-01 13:33:00,39.4,10.4,31.87,North,353,0.0,0.0,30,0.00,NA,NA,-99.99,wxupload 3.4,2013-03-01 18:33:00,
2013-03-01 13:38:00,39.4,10.4,31.87,North,353,3.0,5.0,30,0.00,NA,NA,-99.99,wxupload 3.4,2013-03-01 18:38:00,
2013-03-01 13:45:00,39.4,10.4,31.87,NNW,340,3.0,4.0,30,0.00,NA,NA,-99.99,wxupload 3.4,2013-03-01 18:45:00,
2013-03-01 13:50:00,39.6,10.6,31.87,North,3,0.0,0.0,30,0.00,NA,NA,-99.99,wxupload 3.4,2013-03-01 18:50:00,
2013-03-01 13:57:00,39.4,9.6,31.87,North,0,3.0,6.0,29,0.00,NA,NA,-99.99,wxupload 3.4,2013-03-01 18:57:00,
2013-03-01 14:02:00,39.4,10.4,31.87,NW,313,0.0,0.0,30,0.00,NA,NA,-99.99,wxupload 3.4,2013-03-01 19:02:00,
2013-03-01 14:08:00,39.0,10.1,31.87,NNW,327,0.0,0.0,30,0.00,NA,NA,-99.99,wxupload 3.4,2013-03-01 19:08:00,
2013-03-01 14:14:00,39.0,10.1,31.87,NNW,327,0.0,4.0,30,0.00,NA,NA,-99.99,wxupload 3.4,2013-03-01 19:14:00,
2013-03-01 14:20:00,39.0,10.1,31.87,North,9,0.0,0.0,30,0.00,NA,NA,-99.99,wxupload 3.4,2013-03-01 19:20:00,
2013-03-01 14:26:00,38.7,9.8,31.87,NNW,329,4.0,6.0,30,0.00,NA,NA,-99.99,wxupload 3.4,2013-03-01 19:26:00,
2013-03-01 14:32:00,38.7,9.8,31.87,NW,317,3.0,4.0,30,0.00,NA,NA,-99.99,wxupload 3.4,2013-03-01 19:32:00,
2013-03-01 14:38:00,38.7,9.8,31.87,NW,305,0.0,0.0,30,0.00,NA,NA,-99.99,wxupload 3.4,2013-03-01 19:38:00,
2013-03-01 14:44:00,39.0,10.1,31.87,WNW,290,0.0,4.0,30,0.00,NA,NA,-99.99,wxupload 3.4,2013-03-01 19:44:00,
2013-03-01 14:50:00,39.4,10.4,31.87,NW,309,3.0,5.0,30,0.00,NA,NA,-99.99,wxupload 3.4,2013-03-01 19:50:00,
2013-03-01 14:56:00,39.9,10.9,31.87,NW,311,0.0,0.0,30,0.00,NA,NA,-99.99,wxupload 3.4,2013-03-01 19:56:00,
2013-03-01 15:02:00,40.5,11.4,31.87,WNW,300,2.0,3.0,30,0.00,NA,NA,-99.99,wxupload 3.4,2013-03-01 20:02:00,
2013-03-01 15:08:00,40.6,11.5,31.87,NNW,342,3.0,3.0,30,0.00,NA,NA,-99.99,wxupload 3.4,2013-03-01 20:08:00,
2013-03-01 15:14:00,40.8,10.9,31.87,NNW,338,0.0,0.0,29,0.00,NA,NA,-99.99,wxupload 3.4,2013-03-01 20:14:00,
2013-03-01 15:20:00,41.4,11.4,31.87,WNW,292,3.0,5.0,29,0.00,NA,NA,-99.99,wxupload 3.4,2013-03-01 20:20:00,
2013-03-01 15:26:00,41.5,11.6,31.87,WNW,301,4.0,6.0,29,0.00,NA,NA,-99.99,wxupload 3.4,2013-03-01 20:26:00,
2013-03-01 15:32:00,41.2,11.2,31.87,NW,308,4.0,5.0,29,0.00,NA,NA,-99.99,wxupload 3.4,2013-03-01 20:32:00,
2013-03-01 15:38:00,40.3,10.4,31.87,NNW,339,0.0,6.0,29,0.00,NA,NA,-99.99,wxupload 3.4,2013-03-01 20:38:00,
2013-03-01 15:44:00,39.6,9.8,31.87,NW,314,3.0,5.0,29,0.00,NA,NA,-99.99,wxupload 3.4,2013-03-01 20:44:00,
2013-03-01 15:50:00,39.2,9.5,31.87,North,2,2.0,4.0,29,0.00,NA,NA,-99.99,wxupload 3.4,2013-03-01 20:50:00,
2013-03-01 15:56:00,39.2,9.5,31.87,NE,34,0.0,5.0,29,0.00,NA,NA,-99.99,wxupload 3.4,2013-03-01 20:56:00,
2013-03-01 16:03:00,39.2,9.5,31.87,NNE,28,0.0,4.0,29,0.00,NA,NA,-99.99,wxupload 3.4,2013-03-01 21:03:00,
2013-03-01 16:08:00,39.2,9.5,31.87,NE,35,0.0,4.0,29,0.00,NA,NA,-99.99,wxupload 3.4,2013-03-01 21:08:00,
2013-03-01 16:15:00,39.2,9.5,31.87,NNE,31,0.0,0.0,29,0.00,NA,NA,-99.99,wxupload 3.4,2013-03-01 21:15:00,
2013-03-01 16:20:00,39.4,9.6,31.87,NNE,24,0.0,4.0,29,0.00,NA,NA,-99.99,wxupload 3.4,2013-03-01 21:20:00,
2013-03-01 16:27:00,39.4,9.6,31.87,NW,322,0.0,0.0,29,0.00,NA,NA,-99.99,wxupload 3.4,2013-03-01 21:27:00,
2013-03-01 16:32:00,39.4,9.6,31.87,WNW,303,0.0,3.0,29,0.00,NA,NA,-99.99,wxupload 3.4,2013-03-01 21:32:00,
2013-03-01 16:38:00,39.2,9.5,31.87,NNW,346,0.0,0.0,29,0.00,NA,NA,-99.99,wxupload 3.4,2013-03-01 21:38:00,
2013-03-01 16:44:00,39.0,9.3,31.87,NW,316,0.0,0.0,29,0.00,NA,NA,-99.99,wxupload 3.4,2013-03-01 21:44:00,
2013-03-01 16:50:00,38.8,9.2,31.87,NNW,328,2.0,4.0,29,0.00,NA,NA,-99.99,wxupload 3.4,2013-03-01 21:50:00,
2013-03-01 16:56:00,38.7,9.0,31.87,NW,317,0.0,0.0,29,0.00,NA,NA,-99.99,wxupload 3.4,2013-03-01 21:56:00,
2013-03-01 17:02:00,38.5,8.8,31.87,North,353,0.0,3.0,29,0.00,NA,NA,-99.99,wxupload 3.4,2013-03-01 22:02:00,
2013-03-01 17:08:00,38.1,8.5,31.87,WSW,247,2.0,5.0,29,0.00,NA,NA,-99.99,wxupload 3.4,2013-03-01 22:08:00,
2013-03-01 17:14:00,37.9,8.4,31.87,NW,317,0.0,3.0,29,0.00,NA,NA,-99.99,wxupload 3.4,2013-03-01 22:14:00,
2013-03-01 17:20:00,37.6,8.1,31.90,North,357,0.0,4.0,29,0.00,NA,NA,-99.99,wxupload 3.4,2013-03-01 22:20:00,
2013-03-01 17:26:00,37.4,8.7,31.90,NE,38,0.0,2.0,30,0.00,NA,NA,-99.99,wxupload 3.4,2013-03-01 22:26:00,
2013-03-01 17:32:00,37.2,8.5,31.90,NNE,33,0.0,3.0,30,0.00,NA,NA,-99.99,wxupload 3.4,2013-03-01 22:32:00,
2013-03-01 17:38:00,37.0,8.3,31.90,WSW,246,0.0,10.0,30,0.00,NA,NA,-99.99,wxupload 3.4,2013-03-01 22:38:00,
2013-03-01 17:44:00,36.9,8.2,31.90,WNW,297,0.0,0.0,30,0.00,NA,NA,-99.99,wxupload 3.4,2013-03-01 22:44:00,
2013-03-01 17:50:00,36.9,8.2,31.90,NNE,17,2.0,2.0,30,0.00,NA,NA,-99.99,wxupload 3.4,2013-03-01 22:50:00,
2013-03-01 17:56:00,36.7,8.0,31.90,North,353,0.0,3.0,30,0.00,NA,NA,-99.99,wxupload 3.4,2013-03-01 22:56:00,
2013-03-01 18:02:00,36.7,8.0,31.90,WNW,283,0.0,5.0,30,0.00,NA,NA,-99.99,wxupload 3.4,2013-03-01 23:02:00,
2013-03-01 18:08:00,36.7,8.0,31.90,WNW,301,3.0,4.0,30,0.00,NA,NA,-99.99,wxupload 3.4,2013-03-01 23:08:00,
2013-03-01 18:14:00,36.5,7.9,31.90,NNW,341,0.0,4.0,30,0.00,NA,NA,-99.99,wxupload 3.4,2013-03-01 23:14:00,
2013-03-01 18:20:00,36.5,8.6,31.90,NNE,17,3.0,8.0,31,0.00,NA,NA,-99.99,wxupload 3.4,2013-03-01 23:20:00,
2013-03-01 18:26:00,36.3,8.4,31.90,North,5,0.0,0.0,31,0.00,NA,NA,-99.99,wxupload 3.4,2013-03-01 23:26:00,
2013-03-01 18:33:00,36.1,8.3,31.90,North,0,4.0,6.0,31,0.00,NA,NA,-99.99,wxupload 3.4,2013-03-01 23:33:00,
2013-03-01 18:38:00,35.8,8.0,31.90,North,357,3.0,5.0,31,0.00,NA,NA,-99.99,wxupload 3.4,2013-03-01 23:38:00,
2013-03-01 18:45:00,35.6,8.5,31.90,NNE,29,3.0,6.0,32,0.00,NA,NA,-99.99,wxupload 3.4,2013-03-01 23:45:00,
2013-03-01 18:50:00,35.6,8.5,31.90,NNE,16,0.0,4.0,32,0.00,NA,NA,-99.99,wxupload 3.4,2013-03-01 23:50:00,
2013-03-01 18:57:00,35.4,9.0,31.90,North,353,3.0,3.0,33,0.00,NA,NA,-99.99,wxupload 3.4,2013-03-01 23:57:00,
2013-03-01 19:02:00,35.2,8.9,31.90,NNW,341,0.0,4.0,33,0.00,NA,NA,-99.99,wxupload 3.4,2013-03-02 00:02:00,
2013-03-01 19:09:00,34.9,8.5,31.90,North,2,0.0,3.0,33,0.00,NA,NA,-99.99,wxupload 3.4,2013-03-02 00:09:00,
2013-03-01 19:14:00,34.9,8.5,31.90,NNE,14,0.0,0.0,33,0.00,NA,NA,-99.99,wxupload 3.4,2013-03-02 00:14:00,
2013-03-01 19:21:00,34.7,8.4,31.90,NNE,29,0.0,4.0,33,0.00,NA,NA,-99.99,wxupload 3.4,2013-03-02 00:21:00,
2013-03-01 19:26:00,34.7,8.4,31.90,North,0,0.0,0.0,33,0.00,NA,NA,-99.99,wxupload 3.4,2013-03-02 00:26:00,
2013-03-01 19:32:00,34.5,8.9,31.92,NNW,332,0.0,3.0,34,0.00,NA,NA,-99.99,wxupload 3.4,2013-03-02 00:32:00,
2013-03-01 19:38:00,34.5,8.2,31.92,NNE,15,0.0,0.0,33,0.00,NA,NA,-99.99,wxupload 3.4,2013-03-02 00:38:00,
2013-03-01 19:44:00,34.5,8.2,31.92,WNW,292,0.0,0.0,33,0.00,NA,NA,-99.99,wxupload 3.4,2013-03-02 00:44:00,
2013-03-01 19:50:00,34.3,8.1,31.92,NNW,339,0.0,4.0,33,0.00,NA,NA,-99.99,wxupload 3.4,2013-03-02 00:50:00,
2013-03-01 19:56:00,34.3,8.1,31.92,North,0,0.0,0.0,33,0.00,NA,NA,-99.99,wxupload 3.4,2013-03-02 00:56:00,
2013-03-01 20:02:00,34.0,7.7,31.92,ESE,110,0.0,0.0,33,0.00,NA,NA,-99.99,wxupload 3.4,2013-03-02 01:02:00,
2013-03-01 20:08:00,33.6,8.1,31.92,NNW,332,0.0,2.0,34,0.00,NA,NA,-99.99,wxupload 3.4,2013-03-02 01:08:00,
2013-03-01 20:14:00,33.1,7.6,31.92,NW,320,2.0,4.0,34,0.00,NA,NA,-99.99,wxupload 3.4,2013-03-02 01:14:00,
2013-03-01 20:20:00,32.7,7.9,31.92,WNW,295,0.0,0.0,35,0.00,NA,NA,-99.99,wxupload 3.4,2013-03-02 01:20:00,
2013-03-01 20:26:00,32.4,7.6,31.92,North,0,0.0,0.0,35,0.00,NA,NA,-99.99,wxupload 3.4,2013-03-02 01:26:00,
2013-03-01 20:32:00,32.2,8.1,31.92,NNW,338,0.0,0.0,36,0.00,NA,NA,-99.99,wxupload 3.4,2013-03-02 01:32:00,
2013-03-01 20:38:00,32.0,8.5,31.92,NW,313,0.0,0.0,37,0.00,NA,NA,-99.99,wxupload 3.4,2013-03-02 01:38:00,
2013-03-01 20:44:00,31.8,8.4,31.92,NNW,344,0.0,0.0,37,0.00,NA,NA,-99.99,wxupload 3.4,2013-03-02 01:44:00,
2013-03-01 20:50:00,31.6,8.2,31.92,NNE,23,0.0,5.0,37,0.00,NA,NA,-99.99,wxupload 3.4,2013-03-02 01:50:00,
2013-03-01 20:56:00,31.6,8.8,31.92,NW,309,2.0,2.0,38,0.00,NA,NA,-99.99,wxupload 3.4,2013-03-02 01:56:00,
2013-03-01 21:03:00,32.0,9.1,31.92,NNE,14,0.0,0.0,38,0.00,NA,NA,-99.99,wxupload 3.4,2013-03-02 02:03:00,
2013-03-01 21:08:00,32.2,9.9,31.92,NNE,25,0.0,0.0,39,0.00,NA,NA,-99.99,wxupload 3.4,2013-03-02 02:08:00,
2013-03-01 21:15:00,32.4,10.0,31.92,WNW,290,0.0,0.0,39,0.00,NA,NA,-99.99,wxupload 3.4,2013-03-02 02:15:00,
2013-03-01 21:20:00,32.5,9.6,31.95,NW,319,0.0,5.0,38,0.00,NA,NA,-99.99,wxupload 3.4,2013-03-02 02:20:00,
2013-03-01 21:27:00,32.7,9.2,31.95,NNE,13,0.0,0.0,37,0.00,NA,NA,-99.99,wxupload 3.4,2013-03-02 02:27:00,
2013-03-01 21:32:00,32.9,9.3,31.95,ENE,69,0.0,2.0,37,0.00,NA,NA,-99.99,wxupload 3.4,2013-03-02 02:32:00,
2013-03-01 21:39:00,33.1,8.9,31.95,NE,36,0.0,5.0,36,0.00,NA,NA,-99.99,wxupload 3.4,2013-03-02 02:39:00,
2013-03-01 21:44:00,33.1,8.9,31.95,NW,305,0.0,0.0,36,0.00,NA,NA,-99.99,wxupload 3.4,2013-03-02 02:44:00,
2013-03-01 21:51:00,33.1,8.9,31.95,NNE,24,0.0,2.0,36,0.00,NA,NA,-99.99,wxupload 3.4,2013-03-02 02:51:00,
2013-03-01 21:56:00,33.1,8.9,31.95,WNW,292,0.0,0.0,36,0.00,NA,NA,-99.99,wxupload 3.4,2013-03-02 02:56:00,
2013-03-01 22:02:00,32.9,9.3,31.95,NE,37,0.0,2.0,37,0.00,NA,NA,-99.99,wxupload 3.4,2013-03-02 03:02:00,
2013-03-01 22:08:00,32.9,8.7,31.95,NW,326,0.0,3.0,36,0.00,NA,NA,-99.99,wxupload 3.4,2013-03-02 03:08:00,
2013-03-01 22:14:00,32.9,9.3,31.95,NNW,330,2.0,0.0,37,0.00,NA,NA,-99.99,wxupload 3.4,2013-03-02 03:14:00,
2013-03-01 22:20:00,32.9,9.3,31.95,NNW,346,0.0,0.0,37,0.00,NA,NA,-99.99,wxupload 3.4,2013-03-02 03:20:00,
2013-03-01 22:26:00,32.9,9.3,31.95,North,353,0.0,3.0,37,0.00,NA,NA,-99.99,wxupload 3.4,2013-03-02 03:26:00,
2013-03-01 22:32:00,32.9,9.3,31.92,NNE,18,0.0,0.0,37,0.00,NA,NA,-99.99,wxupload 3.4,2013-03-02 03:32:00,
2013-03-01 22:38:00,32.9,9.3,31.92,NNW,335,0.0,0.0,37,0.00,NA,NA,-99.99,wxupload 3.4,2013-03-02 03:38:00,
2013-03-01 22:45:00,32.7,9.2,31.92,North,1,0.0,3.0,37,0.00,NA,NA,-99.99,wxupload 3.4,2013-03-02 03:45:00,
2013-03-01 22:50:00,32.7,9.8,31.92,NE,51,0.0,0.0,38,0.00,NA,NA,-99.99,wxupload 3.4,2013-03-02 03:50:00,
2013-03-01 22:56:00,32.7,9.8,31.92,NW,323,0.0,3.0,38,0.00,NA,NA,-99.99,wxupload 3.4,2013-03-02 03:56:00,
2013-03-01 23:02:00,32.7,9.8,31.92,North,0,0.0,4.0,38,0.00,NA,NA,-99.99,wxupload 3.4,2013-03-02 04:02:00,
2013-03-01 23:09:00,32.7,9.8,31.92,WNW,301,3.0,4.0,38,0.00,NA,NA,-99.99,wxupload 3.4,2013-03-02 04:09:00,
2013-03-01 23:14:00,32.7,9.8,31.92,NNE,31,0.0,3.0,38,0.00,NA,NA,-99.99,wxupload 3.4,2013-03-02 04:14:00,
2013-03-01 23:21:00,32.7,9.8,31.95,NNW,331,0.0,3.0,38,0.00,NA,NA,-99.99,wxupload 3.4,2013-03-02 04:21:00,
2013-03-01 23:26:00,32.7,9.2,31.95,NNW,343,0.0,3.0,37,0.00,NA,NA,-99.99,wxupload 3.4,2013-03-02 04:26:00,
2013-03-01 23:33:00,32.7,9.2,31.95,NNE,31,3.0,0.0,37,0.00,NA,NA,-99.99,wxupload 3.4,2013-03-02 04:33:00,
2013-03-01 23:38:00,32.5,9.0,31.95,WNW,288,0.0,0.0,37,0.00,NA,NA,-99.99,wxupload 3.4,2013-03-02 04:38:00,
2013-03-01 23:45:00,32.5,8.4,31.95,NNE,29,0.0,0.0,36,0.00,NA,NA,-99.99,wxupload 3.4,2013-03-02 04:45:00,
2013-03-01 23:50:00,32.5,8.4,31.92,NNW,335,0.0,0.0,36,0.00,NA,NA,-99.99,wxupload 3.4,2013-03-02 04:50:00,
2013-03-01 23:57:00,32.5,9.0,31.92,NE,49,0.0,9.0,37,0.00,NA,NA,-99.99,wxupload 3.4,2013-03-02 04:57:00,